sensor_id;sensor_type;location;lat;lon;timestamp;P1;durP1;ratioP1;P2;durP2;ratioP2
41061;SDS011;26812;42.662;23.352;2022-09-14T00:00:45;4.35;;;3.33;;
41061;SDS011;26812;42.662;23.352;2022-09-14T00:03:11;4.43;;;4.03;;
41061;SDS011;26812;42.662;23.352;2022-09-14T00:05:38;3.80;;;3.38;;
41061;SDS011;26812;42.662;23.352;2022-09-14T00:08:03;4.28;;;3.97;;
41061;SDS011;26812;42.662;23.352;2022-09-14T00:10:29;3.65;;;3.40;;
41061;SDS011;26812;42.662;23.352;2022-09-14T00:12:54;3.72;;;3.42;;
41061;SDS011;26812;42.662;23.352;2022-09-14T00:15:20;4.88;;;4.20;;
41061;SDS011;26812;42.662;23.352;2022-09-14T00:17:45;4.10;;;3.75;;
41061;SDS011;26812;42.662;23.352;2022-09-14T00:20:11;3.75;;;3.45;;
41061;SDS011;26812;42.662;23.352;2022-09-14T00:22:37;3.95;;;3.50;;
41061;SDS011;26812;42.662;23.352;2022-09-14T00:25:03;4.60;;;3.40;;
41061;SDS011;26812;42.662;23.352;2022-09-14T00:27:28;3.58;;;3.30;;
41061;SDS011;26812;42.662;23.352;2022-09-14T00:29:54;4.65;;;3.83;;
41061;SDS011;26812;42.662;23.352;2022-09-14T00:32:19;3.85;;;3.55;;
41061;SDS011;26812;42.662;23.352;2022-09-14T00:34:44;4.50;;;3.75;;
41061;SDS011;26812;42.662;23.352;2022-09-14T00:37:10;4.00;;;3.60;;
41061;SDS011;26812;42.662;23.352;2022-09-14T00:39:36;5.38;;;3.92;;
41061;SDS011;26812;42.662;23.352;2022-09-14T00:42:02;4.43;;;3.70;;
41061;SDS011;26812;42.662;23.352;2022-09-14T00:46:55;7.03;;;4.72;;
41061;SDS011;26812;42.662;23.352;2022-09-14T00:52:05;6.75;;;4.68;;
41061;SDS011;26812;42.662;23.352;2022-09-14T00:54:34;5.30;;;4.63;;
41061;SDS011;26812;42.662;23.352;2022-09-14T00:57:03;4.28;;;3.75;;
41061;SDS011;26812;42.662;23.352;2022-09-14T00:59:30;8.60;;;4.35;;
41061;SDS011;26812;42.662;23.352;2022-09-14T01:01:58;4.78;;;4.22;;
41061;SDS011;26812;42.662;23.352;2022-09-14T01:04:24;4.82;;;3.85;;
41061;SDS011;26812;42.662;23.352;2022-09-14T01:07:06;5.05;;;4.13;;
41061;SDS011;26812;42.662;23.352;2022-09-14T01:10:32;5.82;;;3.92;;
41061;SDS011;26812;42.662;23.352;2022-09-14T01:25:45;5.30;;;3.50;;
41061;SDS011;26812;42.662;23.352;2022-09-14T01:31:33;4.65;;;4.25;;
41061;SDS011;26812;42.662;23.352;2022-09-14T01:34:04;4.28;;;3.90;;
41061;SDS011;26812;42.662;23.352;2022-09-14T01:36:32;5.38;;;3.95;;
41061;SDS011;26812;42.662;23.352;2022-09-14T01:39:00;4.78;;;4.30;;
41061;SDS011;26812;42.662;23.352;2022-09-14T01:41:27;3.88;;;3.58;;
41061;SDS011;26812;42.662;23.352;2022-09-14T01:44:04;4.57;;;4.18;;
41061;SDS011;26812;42.662;23.352;2022-09-14T01:46:38;4.70;;;4.30;;
41061;SDS011;26812;42.662;23.352;2022-09-14T01:49:10;4.63;;;4.10;;
41061;SDS011;26812;42.662;23.352;2022-09-14T01:51:46;4.43;;;4.05;;
41061;SDS011;26812;42.662;23.352;2022-09-14T01:54:26;4.13;;;3.63;;
41061;SDS011;26812;42.662;23.352;2022-09-14T01:57:17;4.80;;;4.38;;
41061;SDS011;26812;42.662;23.352;2022-09-14T01:59:59;4.00;;;3.65;;
41061;SDS011;26812;42.662;23.352;2022-09-14T02:05:33;4.88;;;4.40;;
41061;SDS011;26812;42.662;23.352;2022-09-14T02:08:03;5.28;;;4.20;;
41061;SDS011;26812;42.662;23.352;2022-09-14T02:10:28;4.32;;;3.92;;
41061;SDS011;26812;42.662;23.352;2022-09-14T02:12:54;5.30;;;4.80;;
41061;SDS011;26812;42.662;23.352;2022-09-14T02:15:20;4.75;;;4.22;;
41061;SDS011;26812;42.662;23.352;2022-09-14T02:17:46;7.70;;;5.13;;
41061;SDS011;26812;42.662;23.352;2022-09-14T02:20:24;5.55;;;4.82;;
41061;SDS011;26812;42.662;23.352;2022-09-14T02:22:55;5.22;;;4.72;;
41061;SDS011;26812;42.662;23.352;2022-09-14T02:25:21;4.30;;;4.00;;
41061;SDS011;26812;42.662;23.352;2022-09-14T02:27:47;4.60;;;4.20;;
41061;SDS011;26812;42.662;23.352;2022-09-14T02:30:12;4.95;;;4.55;;
41061;SDS011;26812;42.662;23.352;2022-09-14T02:35:18;7.13;;;4.90;;
41061;SDS011;26812;42.662;23.352;2022-09-14T02:38:15;5.18;;;4.60;;
41061;SDS011;26812;42.662;23.352;2022-09-14T02:41:27;6.03;;;4.50;;
41061;SDS011;26812;42.662;23.352;2022-09-14T02:51:59;5.55;;;5.05;;
41061;SDS011;26812;42.662;23.352;2022-09-14T02:57:03;7.90;;;5.18;;
41061;SDS011;26812;42.662;23.352;2022-09-14T02:59:29;4.97;;;4.53;;
41061;SDS011;26812;42.662;23.352;2022-09-14T03:01:54;6.30;;;5.32;;
41061;SDS011;26812;42.662;23.352;2022-09-14T03:04:21;5.15;;;4.65;;
41061;SDS011;26812;42.662;23.352;2022-09-14T03:06:47;7.13;;;5.13;;
41061;SDS011;26812;42.662;23.352;2022-09-14T03:09:12;7.20;;;5.22;;
41061;SDS011;26812;42.662;23.352;2022-09-14T03:11:37;5.65;;;5.15;;
41061;SDS011;26812;42.662;23.352;2022-09-14T03:14:10;6.47;;;5.88;;
41061;SDS011;26812;42.662;23.352;2022-09-14T03:16:36;5.53;;;5.03;;
41061;SDS011;26812;42.662;23.352;2022-09-14T03:19:02;7.15;;;5.20;;
41061;SDS011;26812;42.662;23.352;2022-09-14T03:21:29;6.55;;;5.47;;
41061;SDS011;26812;42.662;23.352;2022-09-14T03:23:56;6.63;;;4.93;;
41061;SDS011;26812;42.662;23.352;2022-09-14T03:26:22;5.35;;;4.85;;
41061;SDS011;26812;42.662;23.352;2022-09-14T03:28:54;5.40;;;4.85;;
41061;SDS011;26812;42.662;23.352;2022-09-14T03:31:21;6.55;;;5.15;;
41061;SDS011;26812;42.662;23.352;2022-09-14T03:33:51;5.90;;;5.30;;
41061;SDS011;26812;42.662;23.352;2022-09-14T03:36:18;7.35;;;5.30;;
41061;SDS011;26812;42.662;23.352;2022-09-14T03:38:44;6.85;;;5.38;;
41061;SDS011;26812;42.662;23.352;2022-09-14T03:41:11;6.10;;;5.15;;
41061;SDS011;26812;42.662;23.352;2022-09-14T03:43:37;5.97;;;5.30;;
41061;SDS011;26812;42.662;23.352;2022-09-14T03:48:32;6.53;;;5.35;;
41061;SDS011;26812;42.662;23.352;2022-09-14T03:51:01;7.20;;;5.72;;
41061;SDS011;26812;42.662;23.352;2022-09-14T03:53:27;6.32;;;5.13;;
41061;SDS011;26812;42.662;23.352;2022-09-14T03:55:53;7.10;;;5.40;;
41061;SDS011;26812;42.662;23.352;2022-09-14T03:58:18;6.07;;;5.13;;
41061;SDS011;26812;42.662;23.352;2022-09-14T04:00:44;6.22;;;5.63;;
41061;SDS011;26812;42.662;23.352;2022-09-14T04:03:09;6.43;;;5.63;;
41061;SDS011;26812;42.662;23.352;2022-09-14T04:05:35;9.10;;;6.40;;
41061;SDS011;26812;42.662;23.352;2022-09-14T04:08:01;8.10;;;6.10;;
41061;SDS011;26812;42.662;23.352;2022-09-14T04:10:26;6.07;;;5.50;;
41061;SDS011;26812;42.662;23.352;2022-09-14T04:12:52;7.30;;;5.63;;
41061;SDS011;26812;42.662;23.352;2022-09-14T04:15:17;6.18;;;5.47;;
41061;SDS011;26812;42.662;23.352;2022-09-14T04:17:43;7.25;;;6.07;;
41061;SDS011;26812;42.662;23.352;2022-09-14T04:20:08;7.97;;;5.43;;
41061;SDS011;26812;42.662;23.352;2022-09-14T04:22:34;5.70;;;5.10;;
41061;SDS011;26812;42.662;23.352;2022-09-14T04:24:59;7.72;;;5.68;;
41061;SDS011;26812;42.662;23.352;2022-09-14T04:27:25;5.70;;;5.18;;
41061;SDS011;26812;42.662;23.352;2022-09-14T04:29:58;8.70;;;5.72;;
41061;SDS011;26812;42.662;23.352;2022-09-14T04:32:23;6.90;;;5.78;;
41061;SDS011;26812;42.662;23.352;2022-09-14T04:34:49;7.22;;;6.47;;
41061;SDS011;26812;42.662;23.352;2022-09-14T04:37:14;6.53;;;5.82;;
41061;SDS011;26812;42.662;23.352;2022-09-14T04:39:40;8.27;;;6.45;;
41061;SDS011;26812;42.662;23.352;2022-09-14T04:42:15;9.68;;;6.82;;
41061;SDS011;26812;42.662;23.352;2022-09-14T04:44:47;8.40;;;6.88;;
41061;SDS011;26812;42.662;23.352;2022-09-14T04:47:12;9.80;;;6.60;;
41061;SDS011;26812;42.662;23.352;2022-09-14T04:49:37;7.25;;;6.55;;
41061;SDS011;26812;42.662;23.352;2022-09-14T04:52:03;7.20;;;6.38;;
41061;SDS011;26812;42.662;23.352;2022-09-14T04:54:28;10.48;;;6.43;;
41061;SDS011;26812;42.662;23.352;2022-09-14T04:56:54;8.90;;;6.18;;
41061;SDS011;26812;42.662;23.352;2022-09-14T04:59:19;7.82;;;6.65;;
41061;SDS011;26812;42.662;23.352;2022-09-14T05:01:45;8.50;;;7.00;;
41061;SDS011;26812;42.662;23.352;2022-09-14T05:04:11;7.63;;;6.57;;
41061;SDS011;26812;42.662;23.352;2022-09-14T05:06:38;7.88;;;6.22;;
41061;SDS011;26812;42.662;23.352;2022-09-14T05:09:06;10.18;;;6.95;;
41061;SDS011;26812;42.662;23.352;2022-09-14T05:11:34;8.50;;;7.10;;
41061;SDS011;26812;42.662;23.352;2022-09-14T05:14:01;11.45;;;7.63;;
41061;SDS011;26812;42.662;23.352;2022-09-14T05:16:35;9.35;;;7.25;;
41061;SDS011;26812;42.662;23.352;2022-09-14T05:19:02;7.32;;;6.63;;
41061;SDS011;26812;42.662;23.352;2022-09-14T05:21:31;11.32;;;8.15;;
41061;SDS011;26812;42.662;23.352;2022-09-14T05:23:59;11.48;;;8.68;;
41061;SDS011;26812;42.662;23.352;2022-09-14T05:26:28;9.27;;;8.18;;
41061;SDS011;26812;42.662;23.352;2022-09-14T05:28:57;10.25;;;8.48;;
41061;SDS011;26812;42.662;23.352;2022-09-14T05:31:23;10.25;;;8.38;;
41061;SDS011;26812;42.662;23.352;2022-09-14T05:33:50;10.43;;;9.32;;
41061;SDS011;26812;42.662;23.352;2022-09-14T05:36:16;11.95;;;9.43;;
41061;SDS011;26812;42.662;23.352;2022-09-14T05:38:42;11.68;;;9.55;;
41061;SDS011;26812;42.662;23.352;2022-09-14T05:41:12;12.45;;;9.98;;
41061;SDS011;26812;42.662;23.352;2022-09-14T05:43:38;11.77;;;10.43;;
41061;SDS011;26812;42.662;23.352;2022-09-14T05:46:06;14.65;;;10.05;;
41061;SDS011;26812;42.662;23.352;2022-09-14T05:48:34;11.25;;;9.95;;
41061;SDS011;26812;42.662;23.352;2022-09-14T05:51:02;12.90;;;8.73;;
41061;SDS011;26812;42.662;23.352;2022-09-14T05:53:29;14.82;;;10.25;;
41061;SDS011;26812;42.662;23.352;2022-09-14T05:56:01;11.30;;;9.65;;
41061;SDS011;26812;42.662;23.352;2022-09-14T05:58:29;11.13;;;9.93;;
41061;SDS011;26812;42.662;23.352;2022-09-14T06:00:55;14.38;;;10.38;;
41061;SDS011;26812;42.662;23.352;2022-09-14T06:03:20;14.20;;;9.50;;
41061;SDS011;26812;42.662;23.352;2022-09-14T06:05:46;14.23;;;10.68;;
41061;SDS011;26812;42.662;23.352;2022-09-14T06:08:12;15.88;;;9.38;;
41061;SDS011;26812;42.662;23.352;2022-09-14T06:10:37;10.30;;;8.90;;
41061;SDS011;26812;42.662;23.352;2022-09-14T06:13:02;8.57;;;6.20;;
41061;SDS011;26812;42.662;23.352;2022-09-14T06:15:28;7.63;;;6.82;;
41061;SDS011;26812;42.662;23.352;2022-09-14T06:17:53;9.50;;;7.63;;
41061;SDS011;26812;42.662;23.352;2022-09-14T06:20:19;9.57;;;7.88;;
41061;SDS011;26812;42.662;23.352;2022-09-14T06:22:44;8.13;;;7.43;;
41061;SDS011;26812;42.662;23.352;2022-09-14T06:25:10;8.30;;;7.53;;
41061;SDS011;26812;42.662;23.352;2022-09-14T06:27:35;8.75;;;7.20;;
41061;SDS011;26812;42.662;23.352;2022-09-14T06:30:02;9.10;;;6.78;;
41061;SDS011;26812;42.662;23.352;2022-09-14T06:32:29;7.25;;;6.55;;
41061;SDS011;26812;42.662;23.352;2022-09-14T06:34:55;8.85;;;6.65;;
41061;SDS011;26812;42.662;23.352;2022-09-14T06:37:20;9.32;;;6.82;;
41061;SDS011;26812;42.662;23.352;2022-09-14T06:39:45;7.68;;;6.22;;
41061;SDS011;26812;42.662;23.352;2022-09-14T06:42:11;7.65;;;5.70;;
41061;SDS011;26812;42.662;23.352;2022-09-14T06:44:37;7.28;;;5.68;;
41061;SDS011;26812;42.662;23.352;2022-09-14T06:47:03;7.25;;;6.55;;
41061;SDS011;26812;42.662;23.352;2022-09-14T06:49:29;7.43;;;6.68;;
41061;SDS011;26812;42.662;23.352;2022-09-14T06:51:54;8.27;;;5.82;;
41061;SDS011;26812;42.662;23.352;2022-09-14T06:54:22;6.43;;;5.80;;
41061;SDS011;26812;42.662;23.352;2022-09-14T06:56:49;6.25;;;5.45;;
41061;SDS011;26812;42.662;23.352;2022-09-14T06:59:15;8.27;;;5.85;;
41061;SDS011;26812;42.662;23.352;2022-09-14T07:01:41;5.68;;;5.10;;
41061;SDS011;26812;42.662;23.352;2022-09-14T07:04:09;6.35;;;5.32;;
41061;SDS011;26812;42.662;23.352;2022-09-14T07:06:39;6.00;;;5.07;;
41061;SDS011;26812;42.662;23.352;2022-09-14T07:09:06;6.68;;;5.85;;
41061;SDS011;26812;42.662;23.352;2022-09-14T07:11:32;6.28;;;5.50;;
41061;SDS011;26812;42.662;23.352;2022-09-14T07:13:58;5.35;;;4.90;;
41061;SDS011;26812;42.662;23.352;2022-09-14T07:16:27;6.28;;;5.55;;
41061;SDS011;26812;42.662;23.352;2022-09-14T07:18:55;6.93;;;6.25;;
41061;SDS011;26812;42.662;23.352;2022-09-14T07:21:22;6.57;;;5.68;;
41061;SDS011;26812;42.662;23.352;2022-09-14T07:23:48;6.45;;;5.38;;
41061;SDS011;26812;42.662;23.352;2022-09-14T07:26:15;6.07;;;4.65;;
41061;SDS011;26812;42.662;23.352;2022-09-14T07:28:43;5.78;;;5.07;;
41061;SDS011;26812;42.662;23.352;2022-09-14T07:33:42;6.85;;;5.10;;
41061;SDS011;26812;42.662;23.352;2022-09-14T07:36:09;6.97;;;5.43;;
41061;SDS011;26812;42.662;23.352;2022-09-14T07:38:36;6.68;;;5.40;;
41061;SDS011;26812;42.662;23.352;2022-09-14T07:41:02;8.30;;;5.82;;
41061;SDS011;26812;42.662;23.352;2022-09-14T07:43:27;6.18;;;5.22;;
41061;SDS011;26812;42.662;23.352;2022-09-14T07:45:53;7.38;;;5.40;;
41061;SDS011;26812;42.662;23.352;2022-09-14T07:48:19;6.82;;;5.22;;
41061;SDS011;26812;42.662;23.352;2022-09-14T07:50:45;5.82;;;4.50;;
41061;SDS011;26812;42.662;23.352;2022-09-14T07:53:11;5.25;;;4.80;;
41061;SDS011;26812;42.662;23.352;2022-09-14T07:55:38;6.20;;;4.90;;
41061;SDS011;26812;42.662;23.352;2022-09-14T07:58:04;6.97;;;5.00;;
41061;SDS011;26812;42.662;23.352;2022-09-14T08:00:31;6.40;;;4.50;;
41061;SDS011;26812;42.662;23.352;2022-09-14T08:02:57;5.35;;;4.72;;
41061;SDS011;26812;42.662;23.352;2022-09-14T08:05:23;5.05;;;4.57;;
41061;SDS011;26812;42.662;23.352;2022-09-14T08:07:56;5.75;;;4.32;;
41061;SDS011;26812;42.662;23.352;2022-09-14T08:10:21;6.32;;;4.68;;
41061;SDS011;26812;42.662;23.352;2022-09-14T08:12:54;5.40;;;4.90;;
41061;SDS011;26812;42.662;23.352;2022-09-14T08:15:20;5.35;;;4.30;;
41061;SDS011;26812;42.662;23.352;2022-09-14T08:17:47;6.65;;;4.38;;
41061;SDS011;26812;42.662;23.352;2022-09-14T08:20:13;8.32;;;4.45;;
41061;SDS011;26812;42.662;23.352;2022-09-14T08:22:41;5.60;;;4.90;;
41061;SDS011;26812;42.662;23.352;2022-09-14T08:25:08;5.93;;;4.40;;
41061;SDS011;26812;42.662;23.352;2022-09-14T08:27:34;4.63;;;4.20;;
41061;SDS011;26812;42.662;23.352;2022-09-14T08:30:00;7.10;;;4.15;;
41061;SDS011;26812;42.662;23.352;2022-09-14T08:32:26;5.72;;;4.38;;
41061;SDS011;26812;42.662;23.352;2022-09-14T08:34:51;6.40;;;4.13;;
41061;SDS011;26812;42.662;23.352;2022-09-14T08:37:17;5.32;;;4.88;;
41061;SDS011;26812;42.662;23.352;2022-09-14T08:39:42;7.63;;;4.88;;
41061;SDS011;26812;42.662;23.352;2022-09-14T08:42:13;4.47;;;4.07;;
41061;SDS011;26812;42.662;23.352;2022-09-14T08:44:48;5.85;;;4.07;;
41061;SDS011;26812;42.662;23.352;2022-09-14T08:52:39;5.75;;;3.55;;
41061;SDS011;26812;42.662;23.352;2022-09-14T09:00:33;6.88;;;4.10;;
41061;SDS011;26812;42.662;23.352;2022-09-14T09:08:36;6.03;;;4.57;;
41061;SDS011;26812;42.662;23.352;2022-09-14T09:11:13;5.35;;;3.85;;
41061;SDS011;26812;42.662;23.352;2022-09-14T09:13:43;6.18;;;4.35;;
41061;SDS011;26812;42.662;23.352;2022-09-14T09:16:10;5.75;;;4.75;;
41061;SDS011;26812;42.662;23.352;2022-09-14T09:18:39;5.80;;;4.20;;
41061;SDS011;26812;42.662;23.352;2022-09-14T09:21:14;4.78;;;4.15;;
41061;SDS011;26812;42.662;23.352;2022-09-14T09:23:46;5.38;;;3.22;;
41061;SDS011;26812;42.662;23.352;2022-09-14T09:28:51;5.95;;;3.58;;
41061;SDS011;26812;42.662;23.352;2022-09-14T09:31:18;4.70;;;3.40;;
41061;SDS011;26812;42.662;23.352;2022-09-14T09:33:52;4.72;;;3.40;;
41061;SDS011;26812;42.662;23.352;2022-09-14T09:36:17;6.95;;;4.28;;
41061;SDS011;26812;42.662;23.352;2022-09-14T09:38:44;10.50;;;4.65;;
41061;SDS011;26812;42.662;23.352;2022-09-14T09:41:19;7.38;;;3.50;;
41061;SDS011;26812;42.662;23.352;2022-09-14T09:43:56;7.45;;;4.28;;
41061;SDS011;26812;42.662;23.352;2022-09-14T09:52:20;8.87;;;4.40;;
41061;SDS011;26812;42.662;23.352;2022-09-14T09:54:50;5.57;;;3.63;;
41061;SDS011;26812;42.662;23.352;2022-09-14T09:57:38;6.93;;;4.13;;
41061;SDS011;26812;42.662;23.352;2022-09-14T10:02:38;4.80;;;3.38;;
41061;SDS011;26812;42.662;23.352;2022-09-14T10:07:34;3.95;;;3.40;;
41061;SDS011;26812;42.662;23.352;2022-09-14T10:10:05;4.65;;;3.78;;
41061;SDS011;26812;42.662;23.352;2022-09-14T10:12:37;7.15;;;3.17;;
41061;SDS011;26812;42.662;23.352;2022-09-14T10:15:19;3.97;;;2.97;;
41061;SDS011;26812;42.662;23.352;2022-09-14T10:17:54;7.10;;;3.53;;
41061;SDS011;26812;42.662;23.352;2022-09-14T10:20:37;6.38;;;4.20;;
41061;SDS011;26812;42.662;23.352;2022-09-14T10:25:47;7.47;;;4.25;;
41061;SDS011;26812;42.662;23.352;2022-09-14T10:28:20;4.32;;;3.65;;
41061;SDS011;26812;42.662;23.352;2022-09-14T10:33:42;4.32;;;3.42;;
41061;SDS011;26812;42.662;23.352;2022-09-14T10:41:40;4.47;;;3.28;;
41061;SDS011;26812;42.662;23.352;2022-09-14T10:49:38;7.65;;;3.60;;
41061;SDS011;26812;42.662;23.352;2022-09-14T10:54:53;5.93;;;3.80;;
41061;SDS011;26812;42.662;23.352;2022-09-14T11:00:18;4.70;;;3.60;;
41061;SDS011;26812;42.662;23.352;2022-09-14T11:05:38;6.85;;;3.67;;
41061;SDS011;26812;42.662;23.352;2022-09-14T11:19:41;6.10;;;3.00;;
41061;SDS011;26812;42.662;23.352;2022-09-14T11:24:40;3.42;;;3.00;;
41061;SDS011;26812;42.662;23.352;2022-09-14T11:27:21;3.90;;;2.80;;
41061;SDS011;26812;42.662;23.352;2022-09-14T11:30:05;8.88;;;3.13;;
41061;SDS011;26812;42.662;23.352;2022-09-14T11:32:51;4.28;;;1.73;;
41061;SDS011;26812;42.662;23.352;2022-09-14T11:35:21;2.03;;;1.58;;
41061;SDS011;26812;42.662;23.352;2022-09-14T11:38:00;2.35;;;1.70;;
41061;SDS011;26812;42.662;23.352;2022-09-14T11:40:34;2.55;;;1.38;;
41061;SDS011;26812;42.662;23.352;2022-09-14T11:43:10;2.10;;;1.42;;
41061;SDS011;26812;42.662;23.352;2022-09-14T11:45:46;1.63;;;1.30;;
41061;SDS011;26812;42.662;23.352;2022-09-14T11:48:20;3.50;;;1.50;;
41061;SDS011;26812;42.662;23.352;2022-09-14T11:51:02;3.83;;;1.60;;
41061;SDS011;26812;42.662;23.352;2022-09-14T11:53:32;3.58;;;1.75;;
41061;SDS011;26812;42.662;23.352;2022-09-14T11:55:58;1.77;;;1.50;;
41061;SDS011;26812;42.662;23.352;2022-09-14T11:58:25;1.48;;;1.33;;
41061;SDS011;26812;42.662;23.352;2022-09-14T12:11:37;2.93;;;1.50;;
41061;SDS011;26812;42.662;23.352;2022-09-14T12:19:42;2.38;;;1.70;;
41061;SDS011;26812;42.662;23.352;2022-09-14T12:25:14;1.65;;;1.30;;
41061;SDS011;26812;42.662;23.352;2022-09-14T12:27:42;1.58;;;1.30;;
41061;SDS011;26812;42.662;23.352;2022-09-14T12:32:54;1.15;;;1.00;;
41061;SDS011;26812;42.662;23.352;2022-09-14T12:40:57;3.00;;;1.08;;
41061;SDS011;26812;42.662;23.352;2022-09-14T12:48:52;3.47;;;1.52;;
41061;SDS011;26812;42.662;23.352;2022-09-14T13:05:15;1.10;;;1.00;;
41061;SDS011;26812;42.662;23.352;2022-09-14T13:07:43;2.20;;;1.33;;
41061;SDS011;26812;42.662;23.352;2022-09-14T13:10:51;2.35;;;1.50;;
41061;SDS011;26812;42.662;23.352;2022-09-14T13:13:00;2.05;;;1.40;;
41061;SDS011;26812;42.662;23.352;2022-09-14T13:15:32;3.92;;;1.58;;
41061;SDS011;26812;42.662;23.352;2022-09-14T13:18:02;1.20;;;1.10;;
41061;SDS011;26812;42.662;23.352;2022-09-14T13:20:55;3.22;;;1.55;;
41061;SDS011;26812;42.662;23.352;2022-09-14T13:23:23;2.80;;;1.40;;
41061;SDS011;26812;42.662;23.352;2022-09-14T13:25:52;5.85;;;1.40;;
41061;SDS011;26812;42.662;23.352;2022-09-14T13:28:19;1.60;;;1.25;;
41061;SDS011;26812;42.662;23.352;2022-09-14T13:30:55;1.35;;;1.20;;
41061;SDS011;26812;42.662;23.352;2022-09-14T13:33:22;1.50;;;1.30;;
41061;SDS011;26812;42.662;23.352;2022-09-14T13:38:18;3.65;;;1.50;;
41061;SDS011;26812;42.662;23.352;2022-09-14T13:40:48;1.27;;;1.17;;
41061;SDS011;26812;42.662;23.352;2022-09-14T13:43:16;3.25;;;1.67;;
41061;SDS011;26812;42.662;23.352;2022-09-14T13:45:42;2.58;;;1.40;;
41061;SDS011;26812;42.662;23.352;2022-09-14T13:48:09;1.45;;;1.35;;
41061;SDS011;26812;42.662;23.352;2022-09-14T13:50:38;1.90;;;1.25;;
41061;SDS011;26812;42.662;23.352;2022-09-14T13:53:22;2.00;;;1.45;;
41061;SDS011;26812;42.662;23.352;2022-09-14T13:56:16;1.75;;;1.30;;
41061;SDS011;26812;42.662;23.352;2022-09-14T13:58:41;1.45;;;1.30;;
41061;SDS011;26812;42.662;23.352;2022-09-14T14:01:07;1.70;;;1.40;;
41061;SDS011;26812;42.662;23.352;2022-09-14T14:03:37;1.45;;;1.35;;
41061;SDS011;26812;42.662;23.352;2022-09-14T14:06:45;2.15;;;1.60;;
41061;SDS011;26812;42.662;23.352;2022-09-14T14:09:05;4.68;;;1.50;;
41061;SDS011;26812;42.662;23.352;2022-09-14T14:14:09;3.00;;;1.45;;
41061;SDS011;26812;42.662;23.352;2022-09-14T14:19:37;2.90;;;1.63;;
41061;SDS011;26812;42.662;23.352;2022-09-14T14:24:42;2.35;;;1.80;;
41061;SDS011;26812;42.662;23.352;2022-09-14T14:30:15;2.40;;;2.05;;
41061;SDS011;26812;42.662;23.352;2022-09-14T14:32:43;2.90;;;2.20;;
41061;SDS011;26812;42.662;23.352;2022-09-14T14:35:16;1.92;;;1.60;;
41061;SDS011;26812;42.662;23.352;2022-09-14T14:37:43;2.58;;;1.92;;
41061;SDS011;26812;42.662;23.352;2022-09-14T14:40:10;1.33;;;1.23;;
41061;SDS011;26812;42.662;23.352;2022-09-14T14:42:36;1.50;;;1.40;;
41061;SDS011;26812;42.662;23.352;2022-09-14T14:45:02;1.58;;;1.48;;
41061;SDS011;26812;42.662;23.352;2022-09-14T14:47:28;1.45;;;1.35;;
41061;SDS011;26812;42.662;23.352;2022-09-14T14:49:53;1.60;;;1.35;;
41061;SDS011;26812;42.662;23.352;2022-09-14T14:52:19;2.05;;;1.60;;
41061;SDS011;26812;42.662;23.352;2022-09-14T14:54:44;2.50;;;2.13;;
41061;SDS011;26812;42.662;23.352;2022-09-14T14:57:09;6.00;;;1.75;;
41061;SDS011;26812;42.662;23.352;2022-09-14T14:59:35;3.17;;;1.52;;
41061;SDS011;26812;42.662;23.352;2022-09-14T15:02:00;1.52;;;1.35;;
41061;SDS011;26812;42.662;23.352;2022-09-14T15:04:26;2.97;;;1.15;;
41061;SDS011;26812;42.662;23.352;2022-09-14T15:06:52;1.77;;;1.20;;
41061;SDS011;26812;42.662;23.352;2022-09-14T15:09:25;1.92;;;1.40;;
41061;SDS011;26812;42.662;23.352;2022-09-14T15:11:52;1.95;;;1.70;;
41061;SDS011;26812;42.662;23.352;2022-09-14T15:14:21;2.53;;;1.50;;
41061;SDS011;26812;42.662;23.352;2022-09-14T15:16:48;2.15;;;1.90;;
41061;SDS011;26812;42.662;23.352;2022-09-14T15:19:14;2.67;;;1.88;;
41061;SDS011;26812;42.662;23.352;2022-09-14T15:21:47;2.63;;;1.77;;
41061;SDS011;26812;42.662;23.352;2022-09-14T15:24:12;2.47;;;1.92;;
41061;SDS011;26812;42.662;23.352;2022-09-14T15:26:37;3.42;;;2.38;;
41061;SDS011;26812;42.662;23.352;2022-09-14T15:29:03;2.00;;;1.13;;
41061;SDS011;26812;42.662;23.352;2022-09-14T15:31:29;1.60;;;1.50;;
41061;SDS011;26812;42.662;23.352;2022-09-14T15:33:55;1.30;;;1.20;;
41061;SDS011;26812;42.662;23.352;2022-09-14T15:39:07;2.78;;;2.05;;
41061;SDS011;26812;42.662;23.352;2022-09-14T15:41:35;3.05;;;2.22;;
41061;SDS011;26812;42.662;23.352;2022-09-14T15:44:01;2.15;;;1.58;;
41061;SDS011;26812;42.662;23.352;2022-09-14T15:46:27;2.17;;;1.17;;
41061;SDS011;26812;42.662;23.352;2022-09-14T15:48:53;1.65;;;1.30;;
41061;SDS011;26812;42.662;23.352;2022-09-14T15:51:19;2.22;;;1.50;;
41061;SDS011;26812;42.662;23.352;2022-09-14T15:53:44;3.75;;;1.85;;
41061;SDS011;26812;42.662;23.352;2022-09-14T15:56:10;2.75;;;1.80;;
41061;SDS011;26812;42.662;23.352;2022-09-14T15:58:37;2.20;;;1.70;;
41061;SDS011;26812;42.662;23.352;2022-09-14T16:01:09;1.90;;;1.38;;
41061;SDS011;26812;42.662;23.352;2022-09-14T16:03:36;2.65;;;1.50;;
41061;SDS011;26812;42.662;23.352;2022-09-14T16:06:02;2.38;;;1.77;;
41061;SDS011;26812;42.662;23.352;2022-09-14T16:08:29;3.75;;;1.70;;
41061;SDS011;26812;42.662;23.352;2022-09-14T16:10:58;1.83;;;1.65;;
41061;SDS011;26812;42.662;23.352;2022-09-14T16:13:26;2.40;;;1.42;;
41061;SDS011;26812;42.662;23.352;2022-09-14T16:16:01;2.97;;;2.13;;
41061;SDS011;26812;42.662;23.352;2022-09-14T16:18:28;4.97;;;2.80;;
41061;SDS011;26812;42.662;23.352;2022-09-14T16:20:53;7.68;;;2.95;;
41061;SDS011;26812;42.662;23.352;2022-09-14T16:23:19;5.80;;;1.95;;
41061;SDS011;26812;42.662;23.352;2022-09-14T16:25:44;3.28;;;2.45;;
41061;SDS011;26812;42.662;23.352;2022-09-14T16:28:10;4.65;;;2.90;;
41061;SDS011;26812;42.662;23.352;2022-09-14T16:30:35;5.60;;;3.30;;
41061;SDS011;26812;42.662;23.352;2022-09-14T16:33:00;4.05;;;3.15;;
41061;SDS011;26812;42.662;23.352;2022-09-14T16:35:26;4.95;;;2.83;;
41061;SDS011;26812;42.662;23.352;2022-09-14T16:37:51;4.10;;;1.98;;
41061;SDS011;26812;42.662;23.352;2022-09-14T16:40:17;3.10;;;2.00;;
41061;SDS011;26812;42.662;23.352;2022-09-14T16:42:42;5.53;;;3.58;;
41061;SDS011;26812;42.662;23.352;2022-09-14T16:45:11;7.05;;;3.10;;
41061;SDS011;26812;42.662;23.352;2022-09-14T16:47:36;5.20;;;2.85;;
41061;SDS011;26812;42.662;23.352;2022-09-14T16:50:02;5.88;;;3.65;;
41061;SDS011;26812;42.662;23.352;2022-09-14T16:52:27;6.60;;;3.90;;
41061;SDS011;26812;42.662;23.352;2022-09-14T16:54:53;5.40;;;3.90;;
41061;SDS011;26812;42.662;23.352;2022-09-14T16:57:19;8.38;;;4.68;;
41061;SDS011;26812;42.662;23.352;2022-09-14T16:59:44;8.00;;;4.70;;
41061;SDS011;26812;42.662;23.352;2022-09-14T17:02:10;7.55;;;4.47;;
41061;SDS011;26812;42.662;23.352;2022-09-14T17:04:36;4.20;;;3.35;;
41061;SDS011;26812;42.662;23.352;2022-09-14T17:07:01;14.88;;;6.68;;
41061;SDS011;26812;42.662;23.352;2022-09-14T17:09:28;7.63;;;4.40;;
41061;SDS011;26812;42.662;23.352;2022-09-14T17:11:54;5.57;;;3.90;;
41061;SDS011;26812;42.662;23.352;2022-09-14T17:14:22;9.50;;;3.00;;
41061;SDS011;26812;42.662;23.352;2022-09-14T17:16:50;7.38;;;3.20;;
41061;SDS011;26812;42.662;23.352;2022-09-14T17:19:16;10.95;;;4.45;;
41061;SDS011;26812;42.662;23.352;2022-09-14T17:21:42;7.97;;;3.75;;
41061;SDS011;26812;42.662;23.352;2022-09-14T17:24:09;8.57;;;3.30;;
41061;SDS011;26812;42.662;23.352;2022-09-14T17:26:35;7.10;;;4.25;;
41061;SDS011;26812;42.662;23.352;2022-09-14T17:29:01;8.90;;;4.38;;
41061;SDS011;26812;42.662;23.352;2022-09-14T17:31:29;6.70;;;3.00;;
41061;SDS011;26812;42.662;23.352;2022-09-14T17:33:57;5.47;;;3.13;;
41061;SDS011;26812;42.662;23.352;2022-09-14T17:36:24;11.35;;;6.30;;